createdAt,value
2023-03-08T00:00:56.582Z,99824.81
2023-03-08T00:03:26.847Z,99811.69
2023-03-08T00:06:02.772Z,99818.94
2023-03-08T00:08:33.638Z,99817.88
2023-03-08T00:11:07.700Z,99817.88
2023-03-08T00:13:39.318Z,99831.28
2023-03-08T00:16:15.724Z,99825.63
2023-03-08T00:18:46.268Z,99831.28
2023-03-08T00:21:21.721Z,99820.03
2023-03-08T00:24:04.112Z,99806.63
2023-03-08T00:26:34.570Z,99817.94
2023-03-08T00:29:06.261Z,99820.59
2023-03-08T00:31:37.067Z,99817.88
2023-03-08T00:34:07.445Z,99820.03
2023-03-08T00:36:41.148Z,99826.97
2023-03-08T00:39:15.299Z,99823.72
2023-03-08T00:41:46.383Z,99815.69
2023-03-08T00:44:17.447Z,99815.69
2023-03-08T00:46:50.299Z,99813.81
2023-03-08T00:49:23.440Z,99819.22
2023-03-08T00:51:58.294Z,99817.63
2023-03-08T00:54:34.304Z,99813.06
2023-03-08T00:57:05.059Z,99817.88
2023-03-08T00:59:36.315Z,99807.69
2023-03-08T01:02:07.419Z,99808.50
2023-03-08T01:04:41.303Z,99804.53
2023-03-08T01:07:15.766Z,99804.03
2023-03-08T01:09:46.019Z,99802.94
2023-03-08T01:12:17.051Z,99797.56
2023-03-08T01:14:49.007Z,99796.47
2023-03-08T01:17:19.264Z,99800.75
2023-03-08T01:19:49.647Z,99799.44
2023-03-08T01:22:25.150Z,99786.31
2023-03-08T01:24:55.754Z,99794.59
2023-03-08T01:27:26.112Z,99785.75
2023-03-08T01:29:56.410Z,99779.91
2023-03-08T01:32:26.985Z,99780.94
2023-03-08T01:35:02.262Z,99780.41
2023-03-08T01:37:36.555Z,99779.31
2023-03-08T01:40:09.214Z,99769.66
2023-03-08T01:42:41.401Z,99767.50
2023-03-08T01:45:41.329Z,99767.00
2023-03-08T01:48:11.724Z,99754.88
2023-03-08T01:50:42.728Z,99754.88
2023-03-08T01:53:16.512Z,99752.69
2023-03-08T01:55:46.870Z,99742.28
2023-03-08T01:58:17.161Z,99737.44
2023-03-08T02:00:47.925Z,99734.22
2023-03-08T02:03:18.426Z,99731.06
2023-03-08T02:05:48.666Z,99723.81
2023-03-08T02:08:21.518Z,99720.34
2023-03-08T02:10:51.784Z,99716.56
2023-03-08T02:13:23.456Z,99714.63
2023-03-08T02:15:57.187Z,99710.03
2023-03-08T02:18:27.356Z,99700.72
2023-03-08T02:20:57.918Z,99700.97
2023-03-08T02:23:30.831Z,99692.44
2023-03-08T02:26:05.729Z,99689.75
2023-03-08T02:28:36.340Z,99693.72
2023-03-08T02:31:09.149Z,99699.03
2023-03-08T02:33:39.317Z,99697.94
2023-03-08T02:36:11.411Z,99705.72
2023-03-08T02:38:44.372Z,99708.88
2023-03-08T02:41:14.409Z,99704.03
2023-03-08T02:43:44.410Z,99695.97
2023-03-08T02:46:15.029Z,99690.06
2023-03-08T02:48:46.367Z,99680.97
2023-03-08T02:51:16.380Z,99678.91
2023-03-08T02:53:49.162Z,99678.38
2023-03-08T02:56:19.262Z,99683.44
2023-03-08T02:58:49.377Z,99684.75
2023-03-08T03:01:19.613Z,99681.78
2023-03-08T03:03:49.758Z,99685.25
2023-03-08T03:06:22.054Z,99678.59
2023-03-08T03:08:54.933Z,99667.75
2023-03-08T03:11:26.143Z,99669.41
2023-03-08T03:14:01.422Z,99672.59
2023-03-08T03:16:31.954Z,99689.19
2023-03-08T03:19:02.256Z,99676.00
2023-03-08T03:21:32.484Z,99671.91
2023-03-08T03:24:05.279Z,99673.00
2023-03-08T03:26:35.464Z,99662.81
2023-03-08T03:29:05.443Z,99660.63
2023-03-08T03:31:35.587Z,99656.94
2023-03-08T03:34:05.801Z,99653.94
2023-03-08T03:36:35.927Z,99650.84
2023-03-08T03:39:09.119Z,99649.53
2023-03-08T03:41:39.152Z,99647.88
2023-03-08T03:44:09.410Z,99637.16
2023-03-08T03:46:39.674Z,99637.44
2023-03-08T03:49:09.795Z,99631.28
2023-03-08T03:51:40.017Z,99633.25
2023-03-08T03:54:12.701Z,99644.25
2023-03-08T03:56:42.798Z,99634.56
2023-03-08T03:59:12.842Z,99632.91
2023-03-08T04:01:43.059Z,99631.22
2023-03-08T04:04:13.769Z,99620.47
2023-03-08T04:06:43.867Z,99615.13
2023-03-08T04:09:18.898Z,99600.13
2023-03-08T04:11:48.950Z,99600.31
2023-03-08T04:14:22.222Z,99598.47
2023-03-08T04:16:52.326Z,99605.91
2023-03-08T04:19:22.385Z,99600.06
2023-03-08T04:21:52.531Z,99601.16
2023-03-08T04:24:25.390Z,99587.53
2023-03-08T04:26:55.496Z,99580.94
2023-03-08T04:29:25.475Z,99583.63
2023-03-08T04:32:00.381Z,99577.78
2023-03-08T04:34:30.714Z,99577.78
2023-03-08T04:37:00.631Z,99582.22
2023-03-08T04:39:33.552Z,99575.78
2023-03-08T04:42:03.534Z,99574.50
2023-03-08T04:44:33.845Z,99571.81
2023-03-08T04:47:03.821Z,99565.47
2023-03-08T04:49:33.947Z,99560.66
2023-03-08T04:52:03.956Z,99554.88
2023-03-08T04:54:39.105Z,99547.34
2023-03-08T04:57:09.336Z,99536.63
2023-03-08T04:59:39.357Z,99530.47
2023-03-08T05:02:09.529Z,99534.25
2023-03-08T05:04:39.546Z,99534.25
2023-03-08T05:07:09.488Z,99533.66
2023-03-08T05:09:43.017Z,99526.44
2023-03-08T05:12:13.384Z,99521.94
2023-03-08T05:14:43.358Z,99525.09
2023-03-08T05:17:13.302Z,99521.63
2023-03-08T05:19:43.201Z,99520.53
2023-03-08T05:22:13.142Z,99521.56
2023-03-08T05:24:47.040Z,99512.44
2023-03-08T05:27:17.191Z,99512.66
2023-03-08T05:29:47.244Z,99509.44
2023-03-08T05:32:17.365Z,99508.88
2023-03-08T05:34:47.553Z,99503.88
2023-03-08T05:37:17.482Z,99493.25
2023-03-08T05:39:50.682Z,99480.72
2023-03-08T05:42:21.057Z,99482.03
2023-03-08T05:44:50.985Z,99473.41
2023-03-08T05:47:20.920Z,99463.69
2023-03-08T05:49:50.815Z,99464.97
2023-03-08T05:52:20.760Z,99463.59
2023-03-08T05:54:53.329Z,99453.94
2023-03-08T05:57:23.198Z,99449.13
2023-03-08T05:59:53.026Z,99440.28
2023-03-08T06:02:22.884Z,99440.38
2023-03-08T06:04:52.764Z,99435.88
2023-03-08T06:07:22.574Z,99437.19
2023-03-08T06:09:56.009Z,99432.03
2023-03-08T06:12:25.893Z,99426.66
2023-03-08T06:14:55.758Z,99428.06
2023-03-08T06:17:25.552Z,99421.91
2023-03-08T06:19:55.380Z,99413.66
2023-03-08T06:22:25.270Z,99404.81
2023-03-08T06:24:57.723Z,99399.16
2023-03-08T06:27:27.921Z,99396.28
2023-03-08T06:29:58.368Z,99392.50
2023-03-08T06:32:28.281Z,99389.63
2023-03-08T06:35:00.265Z,99380.78
2023-03-08T06:37:30.063Z,99381.69
2023-03-08T06:40:03.058Z,99378.59
2023-03-08T06:42:41.222Z,99375.72
2023-03-08T06:45:13.493Z,99373.03
2023-03-08T06:47:44.551Z,99372.72
2023-03-08T06:50:15.261Z,99369.25
2023-03-08T06:52:45.472Z,99377.41
2023-03-08T06:55:18.313Z,99365.38
2023-03-08T06:57:48.162Z,99361.34
2023-03-08T07:00:18.842Z,99361.34
2023-03-08T07:02:49.884Z,99362.13
2023-03-08T07:05:20.136Z,99361.13
2023-03-08T07:07:50.009Z,99360.31
2023-03-08T07:10:23.923Z,99362.22
2023-03-08T07:12:54.066Z,99362.50
2023-03-08T07:15:26.456Z,99355.56
2023-03-08T07:17:59.804Z,99352.38
2023-03-08T07:20:30.844Z,99349.59
2023-03-08T07:23:02.048Z,99354.16
2023-03-08T07:25:34.627Z,99354.84
2023-03-08T07:28:04.476Z,99354.53
2023-03-08T07:30:34.454Z,99345.59
2023-03-08T07:33:04.420Z,99354.91
2023-03-08T07:35:34.380Z,99352.94
2023-03-08T07:38:04.200Z,99352.16
2023-03-08T07:40:36.705Z,99360.69
2023-03-08T07:43:06.622Z,99360.69
2023-03-08T07:45:36.718Z,99356.13
2023-03-08T07:48:06.871Z,99360.09
2023-03-08T07:50:36.983Z,99344.44
2023-03-08T07:53:07.995Z,99334.66
2023-03-08T07:55:40.869Z,99330.31
2023-03-08T07:58:10.624Z,99322.00
2023-03-08T08:00:40.455Z,99323.38
2023-03-08T08:03:10.556Z,99315.66
2023-03-08T08:05:40.410Z,99309.41
2023-03-08T08:08:10.422Z,99312.47
2023-03-08T08:10:42.866Z,99301.59
2023-03-08T08:13:12.918Z,99302.00
2023-03-08T08:15:42.698Z,99296.84
2023-03-08T08:18:12.615Z,99291.88
2023-03-08T08:20:42.524Z,99295.94
2023-03-08T08:23:12.297Z,99295.22
2023-03-08T08:25:46.801Z,99276.78
2023-03-08T08:28:16.736Z,99269.25
2023-03-08T08:30:46.528Z,99271.50
2023-03-08T08:33:16.358Z,99274.31
2023-03-08T08:35:46.434Z,99262.88
2023-03-08T08:38:16.368Z,99255.56
2023-03-08T08:40:48.997Z,99257.34
2023-03-08T08:43:19.030Z,99241.19
2023-03-08T08:45:49.460Z,99238.22
2023-03-08T08:48:19.302Z,99236.31
2023-03-08T08:50:49.194Z,99240.69
2023-03-08T08:53:19.193Z,99235.03
2023-03-08T08:55:51.672Z,99229.00
2023-03-08T08:58:21.562Z,99230.56
2023-03-08T09:00:51.439Z,99217.88
2023-03-08T09:03:21.310Z,99219.94
2023-03-08T09:05:51.133Z,99208.97
2023-03-08T09:08:20.887Z,99206.47
2023-03-08T09:10:53.444Z,99206.97
2023-03-08T09:13:23.279Z,99200.03
2023-03-08T09:15:53.083Z,99194.50
2023-03-08T09:18:22.988Z,99204.41
2023-03-08T09:20:53.244Z,99188.72
2023-03-08T09:23:23.789Z,99182.19
2023-03-08T09:26:04.894Z,99190.88
2023-03-08T09:28:34.829Z,99191.59
2023-03-08T09:31:12.140Z,99189.91
2023-03-08T09:33:42.428Z,99196.84
2023-03-08T09:36:13.268Z,99181.75
2023-03-08T09:38:43.027Z,99183.16
2023-03-08T09:41:30.094Z,99178.81
2023-03-08T09:44:13.337Z,99170.63
2023-03-08T09:46:49.126Z,99165.66
2023-03-08T09:52:27.947Z,99166.66
2023-03-08T09:54:57.702Z,99159.31
2023-03-08T09:57:36.396Z,99166.72
2023-03-08T10:00:12.036Z,99164.38
2023-03-08T10:02:50.534Z,99165.47
2023-03-08T10:05:26.557Z,99163.88
2023-03-08T10:08:05.818Z,99161.69
2023-03-08T10:10:44.689Z,99154.38
2023-03-08T10:13:44.839Z,99145.84
2023-03-08T10:16:24.510Z,99143.03
2023-03-08T10:18:58.224Z,99144.03
2023-03-08T10:21:30.069Z,99130.31
2023-03-08T10:24:05.235Z,99123.56
2023-03-08T10:26:35.448Z,99120.75
2023-03-08T10:29:07.904Z,99124.59
2023-03-08T10:31:37.842Z,99109.22
2023-03-08T10:34:15.536Z,99098.06
2023-03-08T10:36:54.331Z,99092.69
2023-03-08T10:39:24.458Z,99084.72
2023-03-08T10:41:58.834Z,99083.50
2023-03-08T10:44:43.034Z,99086.78
2023-03-08T10:47:22.815Z,99089.00
2023-03-08T10:49:52.632Z,99086.41
2023-03-08T10:52:29.408Z,99085.78
2023-03-08T10:55:07.026Z,99085.78
2023-03-08T10:57:37.124Z,99085.31
2023-03-08T11:00:24.882Z,99090.19
2023-03-08T11:03:05.962Z,99092.56
2023-03-08T11:05:35.843Z,99098.09
2023-03-08T11:08:05.686Z,99102.34
2023-03-08T11:10:35.778Z,99096.63
2023-03-08T11:13:09.185Z,99092.19
2023-03-08T11:15:45.397Z,99087.28
2023-03-08T11:18:31.180Z,99084.13
2023-03-08T11:21:06.821Z,99084.28
2023-03-08T11:23:44.968Z,99076.19
2023-03-08T11:26:21.696Z,99085.13
2023-03-08T11:29:08.705Z,99087.66
2023-03-08T11:31:51.174Z,99077.53
2023-03-08T11:34:48.918Z,99075.47
2023-03-08T11:37:29.467Z,99083.97
2023-03-08T11:40:08.032Z,99078.19
2023-03-08T11:42:49.704Z,99072.03
2023-03-08T11:45:26.337Z,99080.25
2023-03-08T11:48:47.509Z,99060.78
2023-03-08T11:51:25.517Z,99065.19
2023-03-08T11:54:06.726Z,99067.88
2023-03-08T11:56:58.269Z,99064.47
2023-03-08T11:59:36.264Z,99071.41
2023-03-08T12:02:14.358Z,99076.66
2023-03-08T12:04:53.989Z,99073.31
2023-03-08T12:07:29.408Z,99075.81
2023-03-08T12:10:04.218Z,99076.78
2023-03-08T12:12:37.925Z,99077.28
2023-03-08T12:15:17.469Z,99077.75
2023-03-08T12:17:54.240Z,99070.03
2023-03-08T12:20:27.998Z,99060.09
2023-03-08T12:23:03.275Z,99056.94
2023-03-08T12:25:35.963Z,99037.88
2023-03-08T12:28:12.795Z,99029.81
2023-03-08T12:30:54.294Z,99032.50
2023-03-08T12:33:25.398Z,99023.53
2023-03-08T12:36:01.316Z,99023.53
2023-03-08T12:38:37.672Z,99018.16
2023-03-08T12:41:09.774Z,99010.13
2023-03-08T12:43:40.680Z,99022.94
2023-03-08T12:46:12.761Z,99012.69
2023-03-08T12:48:51.398Z,99017.56
2023-03-08T12:51:29.045Z,99005.41
2023-03-08T12:54:03.385Z,98998.66
2023-03-08T12:56:37.469Z,98994.25
2023-03-08T12:59:37.499Z,99008.13
2023-03-08T13:02:27.425Z,99014.13
2023-03-08T13:05:23.008Z,99023.09
2023-03-08T13:08:17.548Z,99011.75
2023-03-08T13:11:02.614Z,99006.09
2023-03-08T13:13:41.013Z,99005.97
2023-03-08T13:16:23.741Z,98993.66
2023-03-08T13:19:03.753Z,98994.59
2023-03-08T13:21:36.895Z,98999.97
2023-03-08T13:24:17.573Z,98999.50
2023-03-08T13:27:01.100Z,99003.75
2023-03-08T13:29:34.698Z,99012.91
2023-03-08T13:32:24.292Z,99010.69
2023-03-08T13:35:05.992Z,99001.53
2023-03-08T13:37:35.770Z,98983.28
2023-03-08T13:40:21.506Z,98996.81
2023-03-08T13:43:02.696Z,98997.06
2023-03-08T13:45:32.868Z,98991.09
2023-03-08T13:48:05.786Z,98985.09
2023-03-08T13:50:38.601Z,98975.34
2023-03-08T13:53:13.892Z,98980.09
2023-03-08T13:55:50.722Z,98987.22
2023-03-08T13:58:31.212Z,98981.53
2023-03-08T14:01:03.194Z,98973.66
2023-03-08T14:03:34.794Z,98970.81
2023-03-08T14:06:04.722Z,98964.84
2023-03-08T14:08:34.665Z,98962.63
2023-03-08T14:11:10.196Z,98954.56
2023-03-08T14:13:42.882Z,98950.16
2023-03-08T14:16:27.339Z,98946.41
2023-03-08T14:18:57.639Z,98945.13
2023-03-08T14:21:29.374Z,98950.50
2023-03-08T14:24:01.826Z,98951.28
2023-03-08T14:26:36.808Z,98952.69
2023-03-08T14:29:22.322Z,98959.94
2023-03-08T14:32:07.392Z,98949.81
2023-03-08T14:34:39.606Z,98959.16
2023-03-08T14:37:16.898Z,98947.63
2023-03-08T14:39:48.781Z,98941.31
2023-03-08T14:42:27.580Z,98928.66
2023-03-08T14:45:00.582Z,98933.69
2023-03-08T14:47:32.540Z,98934.47
2023-03-08T14:50:07.343Z,98937.13
2023-03-08T14:52:40.193Z,98933.22
2023-03-08T14:55:24.670Z,98926.75
2023-03-08T14:57:59.936Z,98931.63
2023-03-08T15:00:31.043Z,98933.06
2023-03-08T15:03:02.229Z,98938.59
2023-03-08T15:05:33.262Z,98944.63
2023-03-08T15:08:03.769Z,98935.00
2023-03-08T15:10:37.404Z,98935.94
2023-03-08T15:13:16.946Z,98936.56
2023-03-08T15:15:47.445Z,98945.09
2023-03-08T15:18:17.352Z,98943.84
2023-03-08T15:20:50.463Z,98953.00
2023-03-08T15:23:23.934Z,98945.44
2023-03-08T15:25:54.254Z,98941.31
2023-03-08T15:28:26.907Z,98935.94
2023-03-08T15:30:57.518Z,98931.84
2023-03-08T15:33:27.568Z,98933.91
2023-03-08T15:35:57.805Z,98936.28
2023-03-08T15:38:27.614Z,98945.44
2023-03-08T15:40:57.472Z,98947.13
2023-03-08T15:43:31.743Z,98947.63
2023-03-08T15:46:01.601Z,98948.09
2023-03-08T15:48:31.433Z,98943.84
2023-03-08T15:51:02.040Z,98945.44
2023-03-08T15:53:35.664Z,98950.78
2023-03-08T15:56:06.274Z,98946.84
2023-03-08T15:58:38.728Z,98948.25
2023-03-08T16:01:09.157Z,98946.53
2023-03-08T16:03:39.134Z,98936.56
2023-03-08T16:06:12.418Z,98944.13
2023-03-08T16:08:43.330Z,98936.56
2023-03-08T16:11:15.102Z,98942.53
2023-03-08T16:13:47.623Z,98939.38
2023-03-08T16:16:17.504Z,98934.03
2023-03-08T16:18:47.925Z,98933.72
2023-03-08T16:21:18.030Z,98925.84
2023-03-08T16:23:47.993Z,98915.72
2023-03-08T16:26:19.174Z,98919.50
2023-03-08T16:28:51.674Z,98916.22
2023-03-08T16:31:23.667Z,98920.94
2023-03-08T16:33:53.613Z,98929.00
2023-03-08T16:36:23.493Z,98932.47
2023-03-08T16:38:55.086Z,98940.06
2023-03-08T16:41:26.361Z,98934.69
2023-03-08T16:43:59.097Z,98929.97
2023-03-08T16:46:29.213Z,98930.56
2023-03-08T16:48:59.802Z,98931.69
2023-03-08T16:51:31.396Z,98927.88
2023-03-08T16:54:01.330Z,98923.00
2023-03-08T16:56:32.702Z,98929.97
2023-03-08T16:59:05.225Z,98936.41
2023-03-08T17:01:35.636Z,98928.38
2023-03-08T17:04:05.591Z,98923.00
2023-03-08T17:06:35.762Z,98924.59
2023-03-08T17:09:07.289Z,98921.59
2023-03-08T17:11:38.489Z,98919.84
2023-03-08T17:14:12.812Z,98920.94
2023-03-08T17:16:43.608Z,98924.09
2023-03-08T17:19:15.022Z,98928.38
2023-03-08T17:21:44.793Z,98935.34
2023-03-08T17:24:17.709Z,98925.69
2023-03-08T17:26:50.231Z,98929.00
2023-03-08T17:29:22.907Z,98938.16
2023-03-08T17:31:53.210Z,98937.03
2023-03-08T17:34:23.823Z,98943.50
2023-03-08T17:36:53.783Z,98934.81
2023-03-08T17:39:23.634Z,98929.63
2023-03-08T17:41:53.500Z,98925.84
2023-03-08T17:44:25.951Z,98922.66
2023-03-08T17:46:55.805Z,98923.44
2023-03-08T17:49:25.980Z,98924.09
2023-03-08T17:51:56.422Z,98928.19
2023-03-08T17:54:26.341Z,98928.66
2023-03-08T17:56:56.133Z,98924.72
2023-03-08T17:59:28.645Z,98920.16
2023-03-08T18:01:58.504Z,98915.72
2023-03-08T18:04:28.428Z,98919.69
2023-03-08T18:06:59.282Z,98915.91
2023-03-08T18:09:29.917Z,98918.91
2023-03-08T18:11:59.979Z,98922.66
2023-03-08T18:14:39.837Z,98920.47
2023-03-08T18:17:10.839Z,98918.91
2023-03-08T18:19:41.635Z,98923.44
2023-03-08T18:22:11.432Z,98919.97
2023-03-08T18:24:41.485Z,98919.50
2023-03-08T18:27:11.300Z,98918.56
2023-03-08T18:29:43.960Z,98920.75
2023-03-08T18:32:13.982Z,98925.81
2023-03-08T18:34:44.203Z,98926.31
2023-03-08T18:37:14.093Z,98921.72
2023-03-08T18:39:44.024Z,98910.38
2023-03-08T18:42:14.832Z,98911.94
2023-03-08T18:44:47.420Z,98910.38
2023-03-08T18:47:17.191Z,98911.94
2023-03-08T18:49:47.006Z,98904.38
2023-03-08T18:52:16.943Z,98896.03
2023-03-08T18:54:48.635Z,98889.25
2023-03-08T18:57:18.464Z,98884.84
2023-03-08T18:59:50.900Z,98885.63
2023-03-08T19:02:23.344Z,98879.47
2023-03-08T19:04:53.284Z,98887.66
2023-03-08T19:07:23.337Z,98899.03
2023-03-08T19:09:56.956Z,98895.38
2023-03-08T19:12:27.653Z,98890.16
2023-03-08T19:15:00.143Z,98885.44
2023-03-08T19:17:30.060Z,98901.19
2023-03-08T19:20:00.262Z,98890.94
2023-03-08T19:22:30.130Z,98882.59
2023-03-08T19:25:01.306Z,98873.47
2023-03-08T19:27:31.592Z,98875.03
2023-03-08T19:30:04.342Z,98869.19
2023-03-08T19:32:34.376Z,98868.09
2023-03-08T19:35:04.680Z,98875.66
2023-03-08T19:37:35.483Z,98884.97
2023-03-08T19:40:05.521Z,98879.44
2023-03-08T19:42:35.441Z,98882.59
2023-03-08T19:45:09.025Z,98878.81
2023-03-08T19:47:38.898Z,98870.31
2023-03-08T19:50:09.756Z,98868.22
2023-03-08T19:52:39.683Z,98868.69
2023-03-08T19:55:10.208Z,98857.97
2023-03-08T19:57:41.826Z,98870.31
2023-03-08T20:00:16.037Z,98865.09
2023-03-08T20:02:46.021Z,98869.03
2023-03-08T20:05:15.937Z,98863.06
2023-03-08T20:07:45.788Z,98867.63
2023-03-08T20:10:20.006Z,98858.94
2023-03-08T20:12:51.462Z,98858.94
2023-03-08T20:15:23.932Z,98865.72
2023-03-08T20:17:53.985Z,98850.72
2023-03-08T20:20:24.336Z,98858.75
2023-03-08T20:22:54.107Z,98867.28
2023-03-08T20:25:23.927Z,98869.97
2023-03-08T20:27:53.912Z,98873.13
2023-03-08T20:30:26.803Z,98876.41
2023-03-08T20:32:56.841Z,98866.78
2023-03-08T20:35:27.956Z,98867.59
2023-03-08T20:37:57.824Z,98863.78
2023-03-08T20:40:27.678Z,98859.72
2023-03-08T20:42:59.039Z,98852.28
2023-03-08T20:45:32.116Z,98853.38
2023-03-08T20:48:01.986Z,98845.19
2023-03-08T20:50:32.795Z,98860.50
2023-03-08T20:53:02.585Z,98860.50
2023-03-08T20:55:32.374Z,98861.88
2023-03-08T20:58:02.192Z,98855.75
2023-03-08T21:00:34.662Z,98857.94
2023-03-08T21:03:04.780Z,98857.16
2023-03-08T21:05:36.115Z,98859.53
2023-03-08T21:08:06.766Z,98852.75
2023-03-08T21:10:37.412Z,98850.38
2023-03-08T21:13:08.628Z,98851.16
2023-03-08T21:15:41.543Z,98846.78
2023-03-08T21:18:11.375Z,98848.19
2023-03-08T21:20:41.381Z,98841.09
2023-03-08T21:23:11.280Z,98842.34
2023-03-08T21:25:41.129Z,98840.47
2023-03-08T21:28:11.034Z,98845.34
2023-03-08T21:30:44.436Z,98832.91
2023-03-08T21:33:14.285Z,98830.22
2023-03-08T21:35:44.973Z,98827.53
2023-03-08T21:38:14.804Z,98827.81
2023-03-08T21:40:45.599Z,98826.75
2023-03-08T21:43:15.535Z,98827.53
2023-03-08T21:45:47.961Z,98825.00
2023-03-08T21:48:17.848Z,98822.31
2023-03-08T21:50:47.616Z,98819.78
2023-03-08T21:53:17.597Z,98817.59
2023-03-08T21:55:47.438Z,98815.06
2023-03-08T21:58:17.323Z,98800.09
2023-03-08T22:00:50.038Z,98798.50
2023-03-08T22:03:19.849Z,98802.75
2023-03-08T22:05:50.256Z,98796.28
2023-03-08T22:08:20.068Z,98788.25
2023-03-08T22:10:51.076Z,98783.34
2023-03-08T22:13:20.979Z,98769.97
2023-03-08T22:15:53.444Z,98772.16
2023-03-08T22:18:23.339Z,98771.53
2023-03-08T22:20:53.297Z,98760.81
2023-03-08T22:23:23.159Z,98758.78
2023-03-08T22:25:52.981Z,98753.59
2023-03-08T22:28:23.336Z,98750.88
2023-03-08T22:30:55.947Z,98750.88
2023-03-08T22:33:25.723Z,98732.59
2023-03-08T22:35:55.537Z,98744.56
2023-03-08T22:38:25.561Z,98745.81
2023-03-08T22:40:55.400Z,98746.31
2023-03-08T22:43:25.334Z,98735.94
2023-03-08T22:45:57.895Z,98730.06
2023-03-08T22:48:27.876Z,98723.28
2023-03-08T22:51:10.246Z,98720.13
2023-03-08T22:53:41.271Z,98729.28
2023-03-08T22:56:19.795Z,98722.34
2023-03-08T22:58:49.968Z,98722.16
2023-03-08T23:01:24.203Z,98736.22
2023-03-08T23:03:57.336Z,98732.59
2023-03-08T23:06:28.529Z,98739.69
2023-03-08T23:08:58.852Z,98740.16
2023-03-08T23:11:29.097Z,98739.03
2023-03-08T23:13:58.951Z,98724.25
2023-03-08T23:16:31.487Z,98723.59
2023-03-08T23:19:01.396Z,98727.38
2023-03-08T23:21:33.649Z,98734.31
2023-03-08T23:24:03.469Z,98738.56
2023-03-08T23:26:33.344Z,98721.38
2023-03-08T23:29:06.505Z,98714.13
2023-03-08T23:31:41.630Z,98703.41
2023-03-08T23:34:11.413Z,98702.81
2023-03-08T23:36:41.501Z,98706.41
2023-03-08T23:39:11.404Z,98695.53
2023-03-08T23:41:42.188Z,98696.47
2023-03-08T23:44:13.621Z,98694.28
2023-03-08T23:46:47.056Z,98705.00
2023-03-08T23:49:17.110Z,98711.94
2023-03-08T23:51:46.879Z,98730.25
2023-03-08T23:54:16.740Z,98732.44
2023-03-08T23:56:46.554Z,98727.06
2023-03-08T23:59:19.165Z,98727.25
